Terminal Aerodrome Forecast
Issued by NWS

Home | Current Version | Previous Version | Text Only | Print | Product List | Glossary On
Versions: 1 2 3 4 5 6 7 8 9 10 11 12 13 14 15 16 17 18 19 20 21 22 23 24
000
FTUS41 KBUF 011500 AAB
TAFIAG
TAF AMD
KIAG 011501Z 0115/0212 21006KT 6SM -SN OVC035
     FM011800 25004KT 2SM -SN OVC010
     FM020000 24004KT 4SM -SHSN OVC015
     FM020500 26009KT 5SM -SHSN OVC015
     FM020900 26013G19KT 6SM -SHSN OVC025=

USA.gov is the U.S. government's official web portal to all federal, state and local government web resources and services.